sensor_id;sensor_type;location;lat;lon;timestamp;P1;durP1;ratioP1;P2;durP2;ratioP2
1753;SDS011;58380;48.312;9.246;2024-02-26T08:05:58;9.90;;;5.07;;
1753;SDS011;58380;48.312;9.246;2024-02-26T08:08:59;9.07;;;4.90;;
1753;SDS011;58380;48.312;9.246;2024-02-26T08:11:59;6.28;;;3.10;;
1753;SDS011;58380;48.312;9.246;2024-02-26T08:14:59;4.63;;;2.20;;
1753;SDS011;58380;48.312;9.246;2024-02-26T08:18:00;6.15;;;2.70;;
1753;SDS011;58380;48.312;9.246;2024-02-26T08:21:05;5.25;;;2.63;;
1753;SDS011;58380;48.312;9.246;2024-02-26T08:24:05;7.03;;;3.08;;
1753;SDS011;58380;48.312;9.246;2024-02-26T08:27:06;2.85;;;1.15;;
1753;SDS011;58380;48.312;9.246;2024-02-26T08:30:06;2.97;;;1.50;;
1753;SDS011;58380;48.312;9.246;2024-02-26T08:33:07;3.10;;;1.77;;
1753;SDS011;58380;48.312;9.246;2024-02-26T08:36:08;4.00;;;1.35;;
1753;SDS011;58380;48.312;9.246;2024-02-26T08:39:08;4.90;;;2.05;;
1753;SDS011;58380;48.312;9.246;2024-02-26T08:42:09;5.22;;;1.88;;
1753;SDS011;58380;48.312;9.246;2024-02-26T08:45:09;3.42;;;1.70;;
1753;SDS011;58380;48.312;9.246;2024-02-26T08:48:10;2.50;;;1.50;;
1753;SDS011;58380;48.312;9.246;2024-02-26T08:51:10;2.78;;;1.67;;
1753;SDS011;58380;48.312;9.246;2024-02-26T08:54:11;3.00;;;1.77;;
1753;SDS011;58380;48.312;9.246;2024-02-26T08:57:11;10.52;;;2.10;;
1753;SDS011;58380;48.312;9.246;2024-02-26T09:00:12;3.35;;;1.80;;
1753;SDS011;58380;48.312;9.246;2024-02-26T09:03:13;5.53;;;2.10;;
1753;SDS011;58380;48.312;9.246;2024-02-26T09:06:14;3.03;;;1.83;;
1753;SDS011;58380;48.312;9.246;2024-02-26T09:09:15;3.05;;;1.70;;
1753;SDS011;58380;48.312;9.246;2024-02-26T09:12:15;3.03;;;1.27;;
1753;SDS011;58380;48.312;9.246;2024-02-26T09:15:16;7.60;;;2.10;;
1753;SDS011;58380;48.312;9.246;2024-02-26T09:18:16;4.65;;;2.13;;
1753;SDS011;58380;48.312;9.246;2024-02-26T09:21:17;5.00;;;2.00;;
1753;SDS011;58380;48.312;9.246;2024-02-26T09:24:23;4.55;;;1.98;;
1753;SDS011;58380;48.312;9.246;2024-02-26T09:27:26;9.98;;;2.22;;
1753;SDS011;58380;48.312;9.246;2024-02-26T09:30:27;4.30;;;1.73;;
1753;SDS011;58380;48.312;9.246;2024-02-26T09:33:27;5.22;;;2.35;;
1753;SDS011;58380;48.312;9.246;2024-02-26T09:36:27;4.53;;;2.00;;
1753;SDS011;58380;48.312;9.246;2024-02-26T09:39:28;1.70;;;1.20;;
1753;SDS011;58380;48.312;9.246;2024-02-26T09:42:28;1.98;;;1.02;;
1753;SDS011;58380;48.312;9.246;2024-02-26T09:45:32;2.40;;;1.20;;
1753;SDS011;58380;48.312;9.246;2024-02-26T09:48:35;1.77;;;0.90;;
1753;SDS011;58380;48.312;9.246;2024-02-26T09:51:37;2.55;;;1.10;;
1753;SDS011;58380;48.312;9.246;2024-02-26T09:54:39;2.55;;;1.15;;
1753;SDS011;58380;48.312;9.246;2024-02-26T09:57:45;5.53;;;2.20;;
1753;SDS011;58380;48.312;9.246;2024-02-26T10:00:47;4.50;;;2.17;;
1753;SDS011;58380;48.312;9.246;2024-02-26T10:03:56;5.15;;;1.70;;
1753;SDS011;58380;48.312;9.246;2024-02-26T10:06:58;3.05;;;1.30;;
1753;SDS011;58380;48.312;9.246;2024-02-26T10:10:01;3.30;;;0.98;;
1753;SDS011;58380;48.312;9.246;2024-02-26T10:13:02;2.30;;;1.30;;
1753;SDS011;58380;48.312;9.246;2024-02-26T10:16:09;2.95;;;1.05;;
1753;SDS011;58380;48.312;9.246;2024-02-26T10:19:09;3.03;;;0.85;;
1753;SDS011;58380;48.312;9.246;2024-02-26T10:22:29;1.88;;;0.70;;
1753;SDS011;58380;48.312;9.246;2024-02-26T10:25:30;1.67;;;0.98;;
1753;SDS011;58380;48.312;9.246;2024-02-26T10:28:31;1.45;;;0.85;;
1753;SDS011;58380;48.312;9.246;2024-02-26T10:31:32;1.08;;;0.65;;
1753;SDS011;58380;48.312;9.246;2024-02-26T10:34:33;1.45;;;0.70;;
1753;SDS011;58380;48.312;9.246;2024-02-26T10:37:37;3.88;;;0.68;;
1753;SDS011;58380;48.312;9.246;2024-02-26T10:40:39;2.22;;;0.57;;
1753;SDS011;58380;48.312;9.246;2024-02-26T10:43:39;1.23;;;0.52;;
1753;SDS011;58380;48.312;9.246;2024-02-26T10:46:40;1.58;;;0.65;;
1753;SDS011;58380;48.312;9.246;2024-02-26T10:49:44;3.25;;;0.55;;
1753;SDS011;58380;48.312;9.246;2024-02-26T10:52:49;0.88;;;0.52;;
1753;SDS011;58380;48.312;9.246;2024-02-26T10:56:24;1.00;;;0.40;;
1753;SDS011;58380;48.312;9.246;2024-02-26T10:59:18;0.40;;;0.38;;
1753;SDS011;58380;48.312;9.246;2024-02-26T11:02:20;3.28;;;0.70;;
1753;SDS011;58380;48.312;9.246;2024-02-26T11:05:21;1.65;;;0.40;;
1753;SDS011;58380;48.312;9.246;2024-02-26T11:08:22;0.60;;;0.50;;
1753;SDS011;58380;48.312;9.246;2024-02-26T11:11:24;1.50;;;0.50;;
1753;SDS011;58380;48.312;9.246;2024-02-26T11:14:28;0.60;;;0.30;;
1753;SDS011;58380;48.312;9.246;2024-02-26T11:17:29;1.65;;;0.57;;
1753;SDS011;58380;48.312;9.246;2024-02-26T11:20:32;0.90;;;0.50;;
1753;SDS011;58380;48.312;9.246;2024-02-26T11:23:34;0.50;;;0.28;;
1753;SDS011;58380;48.312;9.246;2024-02-26T11:26:42;0.60;;;0.20;;
1753;SDS011;58380;48.312;9.246;2024-02-26T11:29:50;0.50;;;0.30;;
1753;SDS011;58380;48.312;9.246;2024-02-26T11:32:54;0.98;;;0.40;;
1753;SDS011;58380;48.312;9.246;2024-02-26T11:35:54;0.30;;;0.30;;
1753;SDS011;58380;48.312;9.246;2024-02-26T11:38:55;0.40;;;0.30;;
1753;SDS011;58380;48.312;9.246;2024-02-26T11:42:04;0.32;;;0.30;;
1753;SDS011;58380;48.312;9.246;2024-02-26T11:45:38;3.13;;;0.30;;
1753;SDS011;58380;48.312;9.246;2024-02-26T11:48:48;0.57;;;0.20;;
1753;SDS011;58380;48.312;9.246;2024-02-26T11:51:50;3.95;;;0.38;;
1753;SDS011;58380;48.312;9.246;2024-02-26T11:54:53;0.15;;;0.15;;
1753;SDS011;58380;48.312;9.246;2024-02-26T11:57:56;1.15;;;0.15;;
1753;SDS011;58380;48.312;9.246;2024-02-26T12:00:57;2.67;;;0.60;;
1753;SDS011;58380;48.312;9.246;2024-02-26T12:03:58;0.85;;;0.32;;
1753;SDS011;58380;48.312;9.246;2024-02-26T12:07:01;0.32;;;0.28;;
1753;SDS011;58380;48.312;9.246;2024-02-26T12:10:13;0.35;;;0.20;;
1753;SDS011;58380;48.312;9.246;2024-02-26T12:13:38;0.30;;;0.20;;
1753;SDS011;58380;48.312;9.246;2024-02-26T12:16:39;2.83;;;0.20;;
1753;SDS011;58380;48.312;9.246;2024-02-26T12:19:42;0.40;;;0.20;;
1753;SDS011;58380;48.312;9.246;2024-02-26T12:22:46;1.42;;;0.30;;
1753;SDS011;58380;48.312;9.246;2024-02-26T12:25:48;0.60;;;0.32;;
1753;SDS011;58380;48.312;9.246;2024-02-26T12:28:49;0.73;;;0.43;;
1753;SDS011;58380;48.312;9.246;2024-02-26T12:31:49;0.40;;;0.40;;
1753;SDS011;58380;48.312;9.246;2024-02-26T12:34:50;1.30;;;0.70;;
1753;SDS011;58380;48.312;9.246;2024-02-26T12:37:51;0.70;;;0.40;;
1753;SDS011;58380;48.312;9.246;2024-02-26T12:40:53;2.13;;;0.30;;
1753;SDS011;58380;48.312;9.246;2024-02-26T12:43:54;0.57;;;0.30;;
1753;SDS011;58380;48.312;9.246;2024-02-26T12:47:01;1.13;;;0.40;;
1753;SDS011;58380;48.312;9.246;2024-02-26T12:50:05;0.77;;;0.40;;
1753;SDS011;58380;48.312;9.246;2024-02-26T12:53:06;1.23;;;0.40;;
1753;SDS011;58380;48.312;9.246;2024-02-26T12:56:10;0.55;;;0.45;;
1753;SDS011;58380;48.312;9.246;2024-02-26T12:59:14;1.58;;;0.38;;
1753;SDS011;58380;48.312;9.246;2024-02-26T13:02:14;0.50;;;0.40;;
1753;SDS011;58380;48.312;9.246;2024-02-26T13:05:15;0.77;;;0.40;;
1753;SDS011;58380;48.312;9.246;2024-02-26T13:08:20;1.08;;;0.40;;
1753;SDS011;58380;48.312;9.246;2024-02-26T13:11:21;1.30;;;0.52;;
1753;SDS011;58380;48.312;9.246;2024-02-26T13:14:22;1.38;;;0.35;;
1753;SDS011;58380;48.312;9.246;2024-02-26T13:17:23;0.95;;;0.45;;
1753;SDS011;58380;48.312;9.246;2024-02-26T13:20:25;0.68;;;0.38;;
1753;SDS011;58380;48.312;9.246;2024-02-26T13:23:28;0.73;;;0.50;;
1753;SDS011;58380;48.312;9.246;2024-02-26T13:26:28;0.88;;;0.40;;
1753;SDS011;58380;48.312;9.246;2024-02-26T13:29:29;1.23;;;0.50;;
1753;SDS011;58380;48.312;9.246;2024-02-26T13:32:31;1.50;;;0.63;;
1753;SDS011;58380;48.312;9.246;2024-02-26T13:35:33;1.08;;;0.60;;
1753;SDS011;58380;48.312;9.246;2024-02-26T13:38:34;1.60;;;0.60;;
1753;SDS011;58380;48.312;9.246;2024-02-26T13:41:35;1.92;;;0.90;;
1753;SDS011;58380;48.312;9.246;2024-02-26T13:44:35;4.07;;;1.23;;
1753;SDS011;58380;48.312;9.246;2024-02-26T13:47:39;2.95;;;1.20;;
1753;SDS011;58380;48.312;9.246;2024-02-26T13:50:41;5.65;;;1.17;;
1753;SDS011;58380;48.312;9.246;2024-02-26T13:53:43;1.08;;;0.68;;
1753;SDS011;58380;48.312;9.246;2024-02-26T13:56:43;1.15;;;0.47;;
1753;SDS011;58380;48.312;9.246;2024-02-26T13:59:44;0.95;;;0.60;;
1753;SDS011;58380;48.312;9.246;2024-02-26T14:02:45;1.60;;;0.50;;
1753;SDS011;58380;48.312;9.246;2024-02-26T14:05:45;1.35;;;0.60;;
1753;SDS011;58380;48.312;9.246;2024-02-26T14:08:46;1.15;;;0.70;;
1753;SDS011;58380;48.312;9.246;2024-02-26T14:11:47;1.88;;;0.77;;
1753;SDS011;58380;48.312;9.246;2024-02-26T14:14:48;1.27;;;0.68;;
1753;SDS011;58380;48.312;9.246;2024-02-26T14:17:49;0.90;;;0.50;;
1753;SDS011;58380;48.312;9.246;2024-02-26T14:20:54;2.17;;;0.50;;
1753;SDS011;58380;48.312;9.246;2024-02-26T14:23:55;1.48;;;0.50;;
1753;SDS011;58380;48.312;9.246;2024-02-26T14:26:56;2.15;;;0.40;;
1753;SDS011;58380;48.312;9.246;2024-02-26T14:29:56;0.50;;;0.38;;
1753;SDS011;58380;48.312;9.246;2024-02-26T14:32:57;0.77;;;0.38;;
1753;SDS011;58380;48.312;9.246;2024-02-26T14:35:57;0.73;;;0.40;;
1753;SDS011;58380;48.312;9.246;2024-02-26T14:38:58;0.80;;;0.45;;
1753;SDS011;58380;48.312;9.246;2024-02-26T14:41:58;0.73;;;0.50;;
1753;SDS011;58380;48.312;9.246;2024-02-26T14:44:59;1.08;;;0.57;;
1753;SDS011;58380;48.312;9.246;2024-02-26T14:48:00;0.75;;;0.40;;
1753;SDS011;58380;48.312;9.246;2024-02-26T14:51:00;3.15;;;0.70;;
1753;SDS011;58380;48.312;9.246;2024-02-26T14:54:01;1.67;;;0.60;;
1753;SDS011;58380;48.312;9.246;2024-02-26T14:57:03;1.27;;;0.70;;
1753;SDS011;58380;48.312;9.246;2024-02-26T15:00:04;1.38;;;0.68;;
1753;SDS011;58380;48.312;9.246;2024-02-26T15:03:07;6.88;;;2.30;;
1753;SDS011;58380;48.312;9.246;2024-02-26T15:06:08;3.13;;;0.70;;
1753;SDS011;58380;48.312;9.246;2024-02-26T15:09:08;2.28;;;0.93;;
1753;SDS011;58380;48.312;9.246;2024-02-26T15:12:09;0.88;;;0.50;;
1753;SDS011;58380;48.312;9.246;2024-02-26T15:15:10;1.50;;;0.70;;
1753;SDS011;58380;48.312;9.246;2024-02-26T15:18:10;1.75;;;0.80;;
1753;SDS011;58380;48.312;9.246;2024-02-26T15:21:15;1.10;;;0.73;;
1753;SDS011;58380;48.312;9.246;2024-02-26T15:24:16;1.00;;;0.65;;
1753;SDS011;58380;48.312;9.246;2024-02-26T15:27:17;1.23;;;0.63;;
1753;SDS011;58380;48.312;9.246;2024-02-26T15:30:17;2.53;;;0.68;;
1753;SDS011;58380;48.312;9.246;2024-02-26T15:33:18;4.13;;;0.85;;
1753;SDS011;58380;48.312;9.246;2024-02-26T15:36:18;1.23;;;0.57;;
1753;SDS011;58380;48.312;9.246;2024-02-26T15:39:19;2.03;;;0.60;;
1753;SDS011;58380;48.312;9.246;2024-02-26T15:42:21;1.85;;;0.68;;
1753;SDS011;58380;48.312;9.246;2024-02-26T15:45:21;0.80;;;0.55;;
1753;SDS011;58380;48.312;9.246;2024-02-26T15:48:24;2.15;;;0.70;;
1753;SDS011;58380;48.312;9.246;2024-02-26T15:51:25;1.13;;;0.68;;
1753;SDS011;58380;48.312;9.246;2024-02-26T15:54:25;5.97;;;0.77;;
1753;SDS011;58380;48.312;9.246;2024-02-26T15:57:26;1.58;;;0.85;;
1753;SDS011;58380;48.312;9.246;2024-02-26T16:00:26;1.80;;;0.70;;
1753;SDS011;58380;48.312;9.246;2024-02-26T16:03:26;1.55;;;0.70;;
1753;SDS011;58380;48.312;9.246;2024-02-26T16:06:28;2.38;;;0.95;;
1753;SDS011;58380;48.312;9.246;2024-02-26T16:09:38;1.30;;;0.77;;
1753;SDS011;58380;48.312;9.246;2024-02-26T16:12:39;2.28;;;1.10;;
1753;SDS011;58380;48.312;9.246;2024-02-26T16:15:49;2.80;;;1.02;;
1753;SDS011;58380;48.312;9.246;2024-02-26T16:19:05;1.52;;;0.82;;
1753;SDS011;58380;48.312;9.246;2024-02-26T16:22:10;1.55;;;0.80;;
1753;SDS011;58380;48.312;9.246;2024-02-26T16:25:10;1.52;;;0.95;;
1753;SDS011;58380;48.312;9.246;2024-02-26T16:28:11;1.60;;;0.85;;
1753;SDS011;58380;48.312;9.246;2024-02-26T16:31:11;2.47;;;1.02;;
1753;SDS011;58380;48.312;9.246;2024-02-26T16:34:12;1.70;;;1.10;;
1753;SDS011;58380;48.312;9.246;2024-02-26T16:37:12;1.98;;;1.08;;
1753;SDS011;58380;48.312;9.246;2024-02-26T16:40:15;2.72;;;1.40;;
1753;SDS011;58380;48.312;9.246;2024-02-26T16:43:15;3.05;;;1.35;;
1753;SDS011;58380;48.312;9.246;2024-02-26T16:46:16;2.72;;;1.55;;
1753;SDS011;58380;48.312;9.246;2024-02-26T16:49:17;2.22;;;1.30;;
1753;SDS011;58380;48.312;9.246;2024-02-26T16:52:17;2.60;;;1.38;;
1753;SDS011;58380;48.312;9.246;2024-02-26T16:55:17;5.72;;;1.50;;
1753;SDS011;58380;48.312;9.246;2024-02-26T16:58:18;4.00;;;1.30;;
1753;SDS011;58380;48.312;9.246;2024-02-26T17:01:22;3.65;;;1.35;;
1753;SDS011;58380;48.312;9.246;2024-02-26T17:04:23;2.03;;;1.23;;
1753;SDS011;58380;48.312;9.246;2024-02-26T17:07:23;5.38;;;1.58;;
1753;SDS011;58380;48.312;9.246;2024-02-26T17:10:24;3.58;;;1.58;;
1753;SDS011;58380;48.312;9.246;2024-02-26T17:13:24;3.67;;;2.03;;
1753;SDS011;58380;48.312;9.246;2024-02-26T17:16:24;4.35;;;1.90;;
1753;SDS011;58380;48.312;9.246;2024-02-26T17:19:25;3.63;;;2.17;;
1753;SDS011;58380;48.312;9.246;2024-02-26T17:22:26;5.18;;;2.08;;
1753;SDS011;58380;48.312;9.246;2024-02-26T17:25:27;6.18;;;2.00;;
1753;SDS011;58380;48.312;9.246;2024-02-26T17:28:27;6.22;;;2.90;;
1753;SDS011;58380;48.312;9.246;2024-02-26T17:31:28;4.60;;;2.35;;
1753;SDS011;58380;48.312;9.246;2024-02-26T17:34:31;4.45;;;2.60;;
1753;SDS011;58380;48.312;9.246;2024-02-26T17:37:32;4.38;;;2.45;;
1753;SDS011;58380;48.312;9.246;2024-02-26T17:40:33;6.35;;;2.55;;
1753;SDS011;58380;48.312;9.246;2024-02-26T17:43:34;4.82;;;2.53;;
1753;SDS011;58380;48.312;9.246;2024-02-26T17:46:35;6.97;;;2.25;;
1753;SDS011;58380;48.312;9.246;2024-02-26T17:49:35;5.10;;;2.65;;
1753;SDS011;58380;48.312;9.246;2024-02-26T17:52:40;5.18;;;2.90;;
1753;SDS011;58380;48.312;9.246;2024-02-26T17:55:40;4.75;;;2.70;;
1753;SDS011;58380;48.312;9.246;2024-02-26T17:58:41;4.47;;;2.70;;
1753;SDS011;58380;48.312;9.246;2024-02-26T18:01:42;5.22;;;3.08;;
1753;SDS011;58380;48.312;9.246;2024-02-26T18:04:42;6.03;;;3.53;;
1753;SDS011;58380;48.312;9.246;2024-02-26T18:07:43;5.18;;;2.70;;
1753;SDS011;58380;48.312;9.246;2024-02-26T18:10:44;5.25;;;2.97;;
1753;SDS011;58380;48.312;9.246;2024-02-26T18:13:44;6.13;;;3.10;;
1753;SDS011;58380;48.312;9.246;2024-02-26T18:16:45;5.10;;;3.10;;
1753;SDS011;58380;48.312;9.246;2024-02-26T18:19:45;5.50;;;3.33;;
1753;SDS011;58380;48.312;9.246;2024-02-26T18:22:46;7.10;;;3.42;;
1753;SDS011;58380;48.312;9.246;2024-02-26T18:25:47;4.82;;;2.50;;
1753;SDS011;58380;48.312;9.246;2024-02-26T18:28:48;4.30;;;2.50;;
1753;SDS011;58380;48.312;9.246;2024-02-26T18:31:49;3.88;;;2.53;;
1753;SDS011;58380;48.312;9.246;2024-02-26T18:34:49;4.10;;;2.45;;
1753;SDS011;58380;48.312;9.246;2024-02-26T18:37:49;4.60;;;2.42;;
1753;SDS011;58380;48.312;9.246;2024-02-26T18:40:50;4.78;;;2.60;;
1753;SDS011;58380;48.312;9.246;2024-02-26T18:43:51;4.15;;;2.50;;
1753;SDS011;58380;48.312;9.246;2024-02-26T18:46:53;4.32;;;2.40;;
1753;SDS011;58380;48.312;9.246;2024-02-26T18:49:53;4.20;;;2.40;;
1753;SDS011;58380;48.312;9.246;2024-02-26T18:52:54;6.55;;;2.15;;
1753;SDS011;58380;48.312;9.246;2024-02-26T18:56:00;9.13;;;2.80;;
1753;SDS011;58380;48.312;9.246;2024-02-26T18:59:01;5.22;;;2.50;;
1753;SDS011;58380;48.312;9.246;2024-02-26T19:02:02;5.70;;;2.50;;
1753;SDS011;58380;48.312;9.246;2024-02-26T19:05:04;5.18;;;2.70;;
1753;SDS011;58380;48.312;9.246;2024-02-26T19:08:05;5.38;;;3.03;;
1753;SDS011;58380;48.312;9.246;2024-02-26T19:11:06;6.50;;;2.80;;
1753;SDS011;58380;48.312;9.246;2024-02-26T19:14:08;5.65;;;3.40;;
1753;SDS011;58380;48.312;9.246;2024-02-26T19:17:08;4.88;;;2.88;;
1753;SDS011;58380;48.312;9.246;2024-02-26T19:20:09;6.53;;;3.22;;
1753;SDS011;58380;48.312;9.246;2024-02-26T19:23:10;4.78;;;2.80;;
1753;SDS011;58380;48.312;9.246;2024-02-26T19:26:13;5.30;;;3.40;;
1753;SDS011;58380;48.312;9.246;2024-02-26T19:29:13;6.25;;;3.63;;
1753;SDS011;58380;48.312;9.246;2024-02-26T19:32:14;5.35;;;2.85;;
1753;SDS011;58380;48.312;9.246;2024-02-26T19:35:14;5.95;;;3.08;;
1753;SDS011;58380;48.312;9.246;2024-02-26T19:38:15;6.80;;;3.17;;
1753;SDS011;58380;48.312;9.246;2024-02-26T19:41:19;5.82;;;3.10;;
1753;SDS011;58380;48.312;9.246;2024-02-26T19:44:19;5.47;;;3.30;;
1753;SDS011;58380;48.312;9.246;2024-02-26T19:47:20;6.43;;;3.58;;
1753;SDS011;58380;48.312;9.246;2024-02-26T19:50:20;6.82;;;3.35;;
1753;SDS011;58380;48.312;9.246;2024-02-26T19:53:21;5.60;;;3.30;;
1753;SDS011;58380;48.312;9.246;2024-02-26T19:56:22;7.97;;;3.78;;
1753;SDS011;58380;48.312;9.246;2024-02-26T19:59:24;7.63;;;3.65;;
1753;SDS011;58380;48.312;9.246;2024-02-26T20:02:24;6.00;;;2.85;;
1753;SDS011;58380;48.312;9.246;2024-02-26T20:05:25;4.32;;;2.85;;
1753;SDS011;58380;48.312;9.246;2024-02-26T20:08:25;6.40;;;3.63;;
1753;SDS011;58380;48.312;9.246;2024-02-26T20:11:26;5.60;;;3.75;;
1753;SDS011;58380;48.312;9.246;2024-02-26T20:14:26;11.65;;;6.68;;
1753;SDS011;58380;48.312;9.246;2024-02-26T20:17:29;6.20;;;3.20;;
1753;SDS011;58380;48.312;9.246;2024-02-26T20:20:30;8.75;;;4.18;;
1753;SDS011;58380;48.312;9.246;2024-02-26T20:23:30;6.00;;;2.60;;
1753;SDS011;58380;48.312;9.246;2024-02-26T20:26:31;5.88;;;2.72;;
1753;SDS011;58380;48.312;9.246;2024-02-26T20:29:34;7.70;;;3.50;;
1753;SDS011;58380;48.312;9.246;2024-02-26T20:32:34;7.63;;;4.10;;
1753;SDS011;58380;48.312;9.246;2024-02-26T20:35:35;9.45;;;5.80;;
1753;SDS011;58380;48.312;9.246;2024-02-26T20:38:35;6.07;;;3.47;;
1753;SDS011;58380;48.312;9.246;2024-02-26T20:41:36;5.47;;;3.40;;
1753;SDS011;58380;48.312;9.246;2024-02-26T20:44:36;5.43;;;3.45;;
1753;SDS011;58380;48.312;9.246;2024-02-26T20:47:37;6.68;;;3.10;;
1753;SDS011;58380;48.312;9.246;2024-02-26T20:50:38;5.43;;;3.30;;
1753;SDS011;58380;48.312;9.246;2024-02-26T20:53:38;5.13;;;3.08;;
1753;SDS011;58380;48.312;9.246;2024-02-26T20:56:41;6.28;;;3.00;;
1753;SDS011;58380;48.312;9.246;2024-02-26T20:59:41;10.02;;;5.03;;
1753;SDS011;58380;48.312;9.246;2024-02-26T21:02:43;6.20;;;4.07;;
1753;SDS011;58380;48.312;9.246;2024-02-26T21:05:43;8.38;;;4.30;;
1753;SDS011;58380;48.312;9.246;2024-02-26T21:08:44;6.20;;;4.07;;
1753;SDS011;58380;48.312;9.246;2024-02-26T21:11:45;6.97;;;4.57;;
1753;SDS011;58380;48.312;9.246;2024-02-26T21:14:45;16.27;;;8.82;;
1753;SDS011;58380;48.312;9.246;2024-02-26T21:17:46;7.65;;;4.45;;
1753;SDS011;58380;48.312;9.246;2024-02-26T21:20:46;6.40;;;3.90;;
1753;SDS011;58380;48.312;9.246;2024-02-26T21:23:46;7.50;;;4.28;;
1753;SDS011;58380;48.312;9.246;2024-02-26T21:26:47;6.30;;;3.95;;
1753;SDS011;58380;48.312;9.246;2024-02-26T21:29:49;7.35;;;3.70;;
1753;SDS011;58380;48.312;9.246;2024-02-26T21:32:49;5.80;;;3.60;;
1753;SDS011;58380;48.312;9.246;2024-02-26T21:35:50;5.18;;;3.70;;
1753;SDS011;58380;48.312;9.246;2024-02-26T21:38:51;5.80;;;3.53;;
1753;SDS011;58380;48.312;9.246;2024-02-26T21:41:51;5.63;;;3.72;;
1753;SDS011;58380;48.312;9.246;2024-02-26T21:44:52;6.95;;;3.60;;
